Time;durP1;ratioP1;P1;durP2;ratioP2;P2;SDS_P1;SDS_P2;PMS_P1;PMS_P2;Temp;Humidity;BMP_temperature;BMP_pressure;BME280_temperature;BME280_humidity;BME280_pressure;Samples;Min_cycle;Max_cycle;Signal;HPM_P1;HPM_P2
2022/12/07 00:29:51;;;;;;;6.35;2.90;;;;;;;;;;5138676;27;20456;-68
2022/12/07 00:32:18;;;;;;;6.28;3.20;;;;;;;;;;5079379;28;20158;-68
2022/12/07 00:34:47;;;;;;;7.32;3.28;;;;;;;;;;5046574;28;20067;-71
2022/12/07 00:37:14;;;;;;;7.55;3.30;;;;;;;;;;5036169;28;20082;-70
2022/12/07 00:39:42;;;;;;;6.95;3.10;;;;;;;;;;5050762;28;20459;-69
2022/12/07 00:42:09;;;;;;;8.38;3.63;;;;;;;;;;5054518;28;20091;-70
2022/12/07 00:44:35;;;;;;;7.85;3.15;;;;;;;;;;5054930;28;20056;-69
2022/12/07 00:47:08;;;;;;;9.15;3.95;;;;;;;;;;5021824;28;20059;-70
2022/12/07 00:49:34;;;;;;;7.05;3.53;;;;;;;;;;5044646;28;20078;-69
2022/12/07 00:52:01;;;;;;;7.28;3.10;;;;;;;;;;5050832;28;20063;-68
2022/12/07 00:54:28;;;;;;;6.57;3.40;;;;;;;;;;5055167;28;20059;-70
2022/12/07 00:56:54;;;;;;;9.73;3.83;;;;;;;;;;4995559;28;20054;-69
2022/12/07 00:59:28;;;;;;;7.05;3.28;;;;;;;;;;5045287;28;20060;-72
2022/12/07 01:02:05;;;;;;;10.98;3.60;;;;;;;;;;5008150;28;20135;-71
2022/12/07 01:04:41;;;;;;;6.97;3.42;;;;;;;;;;5041691;28;20044;-71
2022/12/07 01:07:07;;;;;;;8.17;3.80;;;;;;;;;;5046228;28;20050;-71
2022/12/07 01:09:34;;;;;;;7.13;3.35;;;;;;;;;;5051972;28;20310;-69
2022/12/07 01:12:00;;;;;;;7.72;3.50;;;;;;;;;;5051605;28;20052;-70
2022/12/07 01:14:27;;;;;;;5.80;2.95;;;;;;;;;;5066961;28;20048;-70
2022/12/07 01:16:55;;;;;;;7.25;3.00;;;;;;;;;;5034883;28;20109;-68
2022/12/07 01:19:21;;;;;;;9.38;3.10;;;;;;;;;;5049510;28;20056;-70
2022/12/07 01:21:50;;;;;;;6.35;3.00;;;;;;;;;;5051862;28;20052;-71
2022/12/07 01:24:16;;;;;;;7.22;3.40;;;;;;;;;;5042598;28;20082;-70
2022/12/07 01:26:43;;;;;;;6.28;3.08;;;;;;;;;;5029642;28;20048;-71
2022/12/07 01:29:09;;;;;;;5.55;2.90;;;;;;;;;;5064368;28;20086;-71
2022/12/07 01:31:36;;;;;;;6.97;3.25;;;;;;;;;;5068030;28;20106;-71
2022/12/07 01:34:03;;;;;;;7.78;3.60;;;;;;;;;;5048692;28;20056;-69
2022/12/07 01:36:31;;;;;;;6.97;3.03;;;;;;;;;;5051030;28;20067;-71
2022/12/07 01:39:00;;;;;;;8.43;3.13;;;;;;;;;;5037412;28;20056;-69
2022/12/07 01:41:28;;;;;;;7.43;3.03;;;;;;;;;;5032815;28;20044;-69
2022/12/07 01:44:12;;;;;;;6.13;2.88;;;;;;;;;;5031328;28;20084;-69
2022/12/07 01:46:38;;;;;;;8.05;2.90;;;;;;;;;;5038339;28;20123;-70
2022/12/07 01:49:06;;;;;;;7.70;3.35;;;;;;;;;;5052344;28;20063;-71
2022/12/07 01:51:32;;;;;;;6.82;3.13;;;;;;;;;;5033295;28;20064;-68
2022/12/07 01:54:01;;;;;;;6.82;3.20;;;;;;;;;;5042095;28;20047;-68
2022/12/07 01:56:28;;;;;;;9.43;3.45;;;;;;;;;;5005494;28;20056;-67
2022/12/07 01:58:55;;;;;;;8.40;2.92;;;;;;;;;;5001892;28;20066;-70
2022/12/07 02:01:22;;;;;;;7.25;2.90;;;;;;;;;;5019108;28;20051;-71
2022/12/07 02:03:49;;;;;;;7.30;2.90;;;;;;;;;;5050520;28;20056;-69
2022/12/07 02:06:17;;;;;;;4.97;2.55;;;;;;;;;;5039406;28;20056;-70
2022/12/07 02:08:44;;;;;;;6.28;2.80;;;;;;;;;;5015425;28;20044;-69
2022/12/07 02:11:13;;;;;;;8.35;3.42;;;;;;;;;;5035421;28;20053;-70
2022/12/07 02:13:42;;;;;;;6.82;3.00;;;;;;;;;;5023588;28;20059;-70
2022/12/07 02:16:17;;;;;;;6.78;3.10;;;;;;;;;;5016226;28;20064;-69
2022/12/07 02:18:49;;;;;;;5.60;2.60;;;;;;;;;;5048452;28;20059;-70
2022/12/07 02:21:17;;;;;;;5.57;2.58;;;;;;;;;;5010412;28;20060;-69
2022/12/07 02:23:57;;;;;;;6.93;2.80;;;;;;;;;;5018706;28;20081;-69
2022/12/07 02:26:41;;;;;;;6.68;2.55;;;;;;;;;;5026105;28;20053;-69
2022/12/07 02:29:14;;;;;;;8.80;3.08;;;;;;;;;;5025186;28;20060;-68
2022/12/07 02:31:46;;;;;;;9.98;2.50;;;;;;;;;;5002322;28;20049;-67
2022/12/07 02:34:18;;;;;;;4.90;2.72;;;;;;;;;;5012410;28;20053;-68
2022/12/07 02:36:47;;;;;;;5.70;2.75;;;;;;;;;;5022623;28;20048;-69
2022/12/07 02:39:14;;;;;;;;;;;;;;;;;;5027430;28;20051;-69
2022/12/07 02:41:43;;;;;;;8.07;2.67;;;;;;;;;;5028818;28;19959;-69
2022/12/07 02:44:13;;;;;;;5.38;2.53;;;;;;;;;;5008653;28;20424;-67
2022/12/07 02:46:43;;;;;;;5.00;2.55;;;;;;;;;;4979909;28;20077;-71
2022/12/07 02:49:29;;;;;;;5.15;2.40;;;;;;;;;;5001806;28;20048;-69
2022/12/07 02:51:56;;;;;;;6.47;2.60;;;;;;;;;;5034680;28;20180;-68
2022/12/07 02:54:23;;;;;;;5.28;2.42;;;;;;;;;;4999817;28;20053;-71
2022/12/07 02:56:51;;;;;;;6.72;2.53;;;;;;;;;;5013299;28;20057;-69
2022/12/07 02:59:23;;;;;;;6.15;2.53;;;;;;;;;;5000276;28;20061;-69
2022/12/07 03:01:55;;;;;;;5.80;2.40;;;;;;;;;;5017811;28;20061;-67
2022/12/07 03:04:32;;;;;;;6.50;2.80;;;;;;;;;;4963038;28;20083;-71
2022/12/07 03:07:01;;;;;;;6.63;2.70;;;;;;;;;;5032298;28;20064;-70
2022/12/07 03:09:32;;;;;;;5.47;2.72;;;;;;;;;;5019109;28;20052;-70
2022/12/07 03:12:01;;;;;;;7.10;2.63;;;;;;;;;;5016015;28;20044;-71
2022/12/07 03:14:31;;;;;;;5.03;2.47;;;;;;;;;;4997015;28;20052;-69
2022/12/07 03:17:03;;;;;;;5.05;2.42;;;;;;;;;;5034812;28;20503;-67
2022/12/07 03:19:32;;;;;;;5.30;2.40;;;;;;;;;;5028633;28;20137;-69
2022/12/07 03:22:00;;;;;;;5.00;2.33;;;;;;;;;;5031350;28;20047;-67
2022/12/07 03:24:27;;;;;;;;;;;;;;;;;;5031324;28;20231;-68
2022/12/07 03:26:55;;;;;;;5.32;2.40;;;;;;;;;;5051321;28;19978;-67
2022/12/07 03:29:23;;;;;;;4.10;2.08;;;;;;;;;;5033287;28;20044;-69
2022/12/07 03:31:54;;;;;;;6.43;2.17;;;;;;;;;;5035687;28;20048;-68
2022/12/07 03:34:26;;;;;;;5.85;2.53;;;;;;;;;;5022720;28;20052;-71
2022/12/07 03:36:55;;;;;;;5.30;2.50;;;;;;;;;;5048938;28;20522;-70
2022/12/07 03:39:24;;;;;;;5.95;2.30;;;;;;;;;;5012805;28;20055;-67
2022/12/07 03:41:51;;;;;;;5.40;2.55;;;;;;;;;;5042582;28;20119;-70
2022/12/07 03:44:18;;;;;;;6.22;2.30;;;;;;;;;;5028488;28;20048;-69
2022/12/07 03:46:50;;;;;;;5.20;2.15;;;;;;;;;;5052621;28;20060;-68
2022/12/07 03:49:23;;;;;;;6.68;2.15;;;;;;;;;;5027489;28;20059;-70
2022/12/07 03:51:55;;;;;;;5.15;2.40;;;;;;;;;;5031205;28;20052;-70
2022/12/07 03:54:24;;;;;;;5.85;2.55;;;;;;;;;;5003344;28;20056;-70
2022/12/07 03:56:51;;;;;;;4.25;2.17;;;;;;;;;;5049061;28;20059;-69
2022/12/07 03:59:18;;;;;;;3.80;1.92;;;;;;;;;;5014765;28;20049;-69
2022/12/07 04:01:44;;;;;;;4.75;2.20;;;;;;;;;;5016472;28;20058;-69
2022/12/07 04:04:11;;;;;;;4.75;2.10;;;;;;;;;;5010735;28;20232;-68
2022/12/07 04:06:38;;;;;;;5.30;2.20;;;;;;;;;;5018473;28;20068;-69
2022/12/07 04:09:11;;;;;;;6.20;2.30;;;;;;;;;;5008808;28;20057;-69
2022/12/07 04:11:37;;;;;;;3.25;1.70;;;;;;;;;;5035250;28;20057;-70
2022/12/07 04:14:19;;;;;;;3.90;2.00;;;;;;;;;;5031230;28;20056;-70
2022/12/07 04:16:46;;;;;;;3.90;1.88;;;;;;;;;;5061871;28;20504;-69
2022/12/07 04:19:12;;;;;;;4.00;2.08;;;;;;;;;;5038280;28;20087;-69
2022/12/07 04:21:39;;;;;;;4.80;2.33;;;;;;;;;;5037707;28;20076;-69
2022/12/07 04:24:07;;;;;;;4.57;2.10;;;;;;;;;;5034596;28;20059;-70
2022/12/07 04:26:34;;;;;;;5.25;1.92;;;;;;;;;;5028146;28;20063;-68
2022/12/07 04:29:01;;;;;;;4.28;1.98;;;;;;;;;;5029719;28;20059;-68
2022/12/07 04:31:28;;;;;;;4.13;2.17;;;;;;;;;;5017359;28;20056;-68
2022/12/07 04:33:54;;;;;;;4.82;2.03;;;;;;;;;;5030134;28;20052;-70
2022/12/07 04:36:21;;;;;;;4.82;2.10;;;;;;;;;;5020880;28;20063;-67
2022/12/07 04:38:48;;;;;;;3.13;1.85;;;;;;;;;;5018094;28;20056;-70
2022/12/07 04:41:16;;;;;;;4.80;2.28;;;;;;;;;;5038807;28;20056;-70
2022/12/07 04:43:43;;;;;;;3.88;1.80;;;;;;;;;;5023402;28;20051;-69
2022/12/07 04:46:10;;;;;;;5.00;2.10;;;;;;;;;;5034933;28;20067;-70
2022/12/07 04:48:36;;;;;;;5.75;1.75;;;;;;;;;;5040141;28;20068;-68
2022/12/07 04:51:05;;;;;;;4.72;1.98;;;;;;;;;;5018169;28;20117;-70
2022/12/07 04:53:31;;;;;;;7.22;1.85;;;;;;;;;;4985285;28;20051;-68
2022/12/07 04:55:58;;;;;;;4.15;1.70;;;;;;;;;;5010876;28;20056;-68
2022/12/07 04:58:27;;;;;;;3.88;1.92;;;;;;;;;;5002215;28;20050;-71
2022/12/07 05:00:53;;;;;;;;;;;;;;;;;;5014957;28;20049;-69
2022/12/07 05:03:23;;;;;;;3.33;1.65;;;;;;;;;;4982180;28;19925;-70
2022/12/07 05:05:49;;;;;;;3.60;1.80;;;;;;;;;;5012193;28;20083;-71
2022/12/07 05:08:16;;;;;;;3.35;1.60;;;;;;;;;;5019915;28;20076;-68
2022/12/07 05:10:43;;;;;;;4.18;1.80;;;;;;;;;;5020658;28;20056;-69
2022/12/07 05:13:10;;;;;;;3.90;1.83;;;;;;;;;;5016846;28;20059;-69
2022/12/07 05:15:38;;;;;;;2.92;1.73;;;;;;;;;;5016793;28;20044;-68
2022/12/07 05:18:05;;;;;;;4.47;1.60;;;;;;;;;;5028258;28;20048;-68
2022/12/07 05:20:34;;;;;;;3.78;1.83;;;;;;;;;;5035976;28;20208;-68
2022/12/07 05:23:01;;;;;;;3.53;1.63;;;;;;;;;;5019560;28;20052;-69
2022/12/07 05:25:28;;;;;;;2.85;1.42;;;;;;;;;;5055229;28;20061;-71
2022/12/07 05:27:55;;;;;;;4.03;1.70;;;;;;;;;;5015317;28;20053;-69
2022/12/07 05:30:22;;;;;;;3.47;1.50;;;;;;;;;;5026951;28;20053;-70
2022/12/07 05:32:50;;;;;;;4.43;1.90;;;;;;;;;;4970470;28;20059;-69
2022/12/07 05:35:17;;;;;;;3.33;1.42;;;;;;;;;;4987419;28;20057;-70
2022/12/07 05:37:43;;;;;;;5.03;1.75;;;;;;;;;;5017765;28;20151;-71
2022/12/07 05:40:10;;;;;;;3.75;1.60;;;;;;;;;;5040485;28;20048;-69
2022/12/07 05:42:39;;;;;;;4.15;1.63;;;;;;;;;;5035805;28;20048;-68
2022/12/07 05:45:09;;;;;;;3.85;1.65;;;;;;;;;;4991587;28;20492;-68
2022/12/07 05:47:36;;;;;;;3.78;1.50;;;;;;;;;;5020065;28;20052;-70
2022/12/07 05:50:06;;;;;;;2.72;1.38;;;;;;;;;;5030584;28;20044;-67
2022/12/07 05:52:33;;;;;;;4.13;1.30;;;;;;;;;;5015458;28;20056;-68
2022/12/07 05:55:00;;;;;;;2.63;1.30;;;;;;;;;;4989704;28;20056;-70
2022/12/07 05:57:26;;;;;;;4.07;1.48;;;;;;;;;;4969922;28;20064;-71
2022/12/07 05:59:52;;;;;;;3.00;1.45;;;;;;;;;;5012308;28;20059;-69
2022/12/07 06:02:18;;;;;;;3.22;1.60;;;;;;;;;;5037425;28;20049;-71
2022/12/07 06:04:46;;;;;;;4.38;1.45;;;;;;;;;;5013899;28;20062;-68
2022/12/07 06:07:16;;;;;;;4.45;1.55;;;;;;;;;;5020461;28;20372;-70
2022/12/07 06:09:42;;;;;;;3.22;1.55;;;;;;;;;;5025528;28;20053;-71
2022/12/07 06:14:54;;;;;;;4.30;1.67;;;;;;;;;;5058666;28;20052;-69
2022/12/07 06:17:21;;;;;;;3.60;1.58;;;;;;;;;;4985834;28;20057;-68
2022/12/07 06:19:48;;;;;;;2.90;1.50;;;;;;;;;;4973724;28;20056;-69
2022/12/07 06:22:17;;;;;;;2.72;1.45;;;;;;;;;;4978366;28;20053;-69
2022/12/07 06:27:09;;;;;;;1.97;1.20;;;;;;;;;;4943620;28;20097;-70
2022/12/07 06:29:39;;;;;;;2.88;1.50;;;;;;;;;;5019400;28;20295;-71
2022/12/07 06:32:05;;;;;;;2.20;1.08;;;;;;;;;;5025035;28;20171;-70
2022/12/07 06:34:33;;;;;;;3.28;1.50;;;;;;;;;;4982473;28;20091;-68
2022/12/07 06:37:00;;;;;;;2.50;1.30;;;;;;;;;;5034030;28;20064;-70
2022/12/07 06:39:29;;;;;;;2.00;1.23;;;;;;;;;;5010835;28;20239;-69
2022/12/07 06:41:56;;;;;;;4.72;1.95;;;;;;;;;;5037873;28;20060;-71
2022/12/07 06:44:23;;;;;;;3.80;1.52;;;;;;;;;;5014808;28;20461;-70
2022/12/07 06:46:49;;;;;;;3.15;1.42;;;;;;;;;;5048017;28;20290;-71
2022/12/07 06:49:16;;;;;;;3.65;1.48;;;;;;;;;;5018255;28;20129;-71
2022/12/07 06:51:46;;;;;;;3.22;1.42;;;;;;;;;;5028825;28;20156;-69
2022/12/07 06:54:14;;;;;;;3.65;1.60;;;;;;;;;;4984619;28;20049;-68
2022/12/07 06:56:42;;;;;;;4.88;1.50;;;;;;;;;;5018609;28;20052;-70
2022/12/07 06:59:09;;;;;;;4.45;1.50;;;;;;;;;;5018198;28;20060;-69
2022/12/07 07:01:36;;;;;;;3.40;1.42;;;;;;;;;;5054852;28;20059;-69
2022/12/07 07:04:03;;;;;;;3.75;1.52;;;;;;;;;;5048926;28;20067;-71
2022/12/07 07:06:30;;;;;;;5.10;1.35;;;;;;;;;;5035504;28;20060;-67
2022/12/07 07:08:57;;;;;;;4.25;1.63;;;;;;;;;;5022490;28;20122;-71
2022/12/07 07:11:23;;;;;;;6.13;1.58;;;;;;;;;;5021412;28;20345;-66
2022/12/07 07:13:51;;;;;;;2.53;1.20;;;;;;;;;;5020230;28;20093;-67
2022/12/07 07:16:18;;;;;;;3.05;1.20;;;;;;;;;;5033389;28;20049;-69
2022/12/07 07:18:45;;;;;;;8.60;2.42;;;;;;;;;;5028655;28;20333;-70
2022/12/07 07:21:14;;;;;;;2.72;1.10;;;;;;;;;;5027064;28;20055;-69
2022/12/07 07:23:41;;;;;;;3.72;1.27;;;;;;;;;;5012013;28;20061;-70
2022/12/07 07:26:08;;;;;;;3.30;1.20;;;;;;;;;;5016822;28;20062;-71
2022/12/07 07:28:34;;;;;;;3.13;1.40;;;;;;;;;;5027888;28;20048;-68
2022/12/07 07:31:05;;;;;;;2.60;1.13;;;;;;;;;;5025611;28;20059;-70
2022/12/07 07:33:35;;;;;;;5.32;1.42;;;;;;;;;;4987359;28;20067;-70
2022/12/07 07:36:04;;;;;;;2.35;1.00;;;;;;;;;;4999955;28;20052;-70
2022/12/07 07:38:33;;;;;;;3.85;1.40;;;;;;;;;;5002036;28;20056;-71
2022/12/07 07:41:00;;;;;;;1.88;1.27;;;;;;;;;;4992899;28;20049;-70
2022/12/07 07:43:27;;;;;;;3.42;1.48;;;;;;;;;;4979385;28;20127;-69
2022/12/07 07:45:54;;;;;;;2.03;1.00;;;;;;;;;;5001750;28;20053;-69
2022/12/07 07:48:25;;;;;;;3.38;1.10;;;;;;;;;;5039522;28;20080;-68
2022/12/07 07:50:53;;;;;;;2.67;1.40;;;;;;;;;;5028249;28;20059;-72
2022/12/07 07:53:22;;;;;;;2.13;1.00;;;;;;;;;;4996875;28;20135;-70
2022/12/07 07:55:53;;;;;;;2.60;1.23;;;;;;;;;;4983671;28;20057;-71
2022/12/07 07:58:22;;;;;;;4.40;1.13;;;;;;;;;;4981515;28;20052;-70
2022/12/07 08:00:51;;;;;;;2.63;1.20;;;;;;;;;;5021291;28;20263;-69
2022/12/07 08:03:18;;;;;;;3.22;1.20;;;;;;;;;;4996925;28;20071;-70
2022/12/07 08:08:15;;;;;;;2.33;1.10;;;;;;;;;;5010385;28;20039;-70
2022/12/07 08:10:41;;;;;;;2.83;1.20;;;;;;;;;;4996268;28;20064;-69
2022/12/07 08:13:13;;;;;;;2.83;1.20;;;;;;;;;;4986170;28;20052;-71
2022/12/07 08:15:41;;;;;;;4.18;1.55;;;;;;;;;;4987246;28;20060;-69
2022/12/07 08:18:08;;;;;;;3.55;1.20;;;;;;;;;;5024262;28;20076;-71
2022/12/07 08:20:37;;;;;;;3.70;1.50;;;;;;;;;;5005329;28;20076;-70
2022/12/07 08:23:11;;;;;;;3.78;1.33;;;;;;;;;;4991783;28;20108;-70
2022/12/07 08:25:42;;;;;;;3.53;1.20;;;;;;;;;;5002841;28;20053;-71
2022/12/07 08:28:09;;;;;;;2.97;1.20;;;;;;;;;;5003637;28;20156;-70
2022/12/07 08:30:38;;;;;;;2.90;1.52;;;;;;;;;;5026515;28;20052;-71
2022/12/07 08:33:12;;;;;;;2.80;1.30;;;;;;;;;;5023300;28;20056;-71
2022/12/07 08:36:01;;;;;;;2.40;1.13;;;;;;;;;;5012563;28;20155;-70
2022/12/07 08:38:33;;;;;;;3.58;1.50;;;;;;;;;;5018400;28;20067;-70
2022/12/07 08:41:01;;;;;;;2.05;1.10;;;;;;;;;;5055363;28;20069;-72
2022/12/07 08:43:30;;;;;;;2.47;1.20;;;;;;;;;;5036071;28;20044;-70
2022/12/07 08:46:04;;;;;;;3.22;1.30;;;;;;;;;;5027673;28;20079;-70
2022/12/07 08:48:33;;;;;;;2.67;1.20;;;;;;;;;;5033711;28;20045;-69
2022/12/07 08:51:04;;;;;;;6.15;1.48;;;;;;;;;;4999144;28;20052;-69
2022/12/07 08:53:33;;;;;;;2.33;1.15;;;;;;;;;;4966426;28;20059;-71
2022/12/07 08:56:04;;;;;;;3.78;1.77;;;;;;;;;;5008301;28;20064;-69
2022/12/07 08:58:32;;;;;;;4.13;1.10;;;;;;;;;;5018045;28;20053;-70
2022/12/07 09:00:59;;;;;;;2.10;1.30;;;;;;;;;;5003901;28;20053;-70
2022/12/07 09:03:34;;;;;;;3.33;1.17;;;;;;;;;;5014979;28;20064;-70
2022/12/07 09:06:01;;;;;;;2.72;1.42;;;;;;;;;;5003777;28;20059;-69
2022/12/07 09:08:31;;;;;;;3.28;1.25;;;;;;;;;;5041429;28;20064;-71
2022/12/07 09:11:03;;;;;;;5.60;1.13;;;;;;;;;;5025024;28;20049;-70
2022/12/07 09:13:37;;;;;;;2.58;1.10;;;;;;;;;;5007481;28;20049;-70
2022/12/07 09:16:07;;;;;;;2.30;0.98;;;;;;;;;;4964880;28;20064;-70
2022/12/07 09:18:37;;;;;;;2.35;0.98;;;;;;;;;;5006014;28;20053;-69
2022/12/07 09:21:09;;;;;;;4.03;1.40;;;;;;;;;;5018760;28;20053;-69
2022/12/07 09:23:46;;;;;;;3.38;1.13;;;;;;;;;;5007513;28;20053;-71
2022/12/07 09:26:32;;;;;;;2.33;1.10;;;;;;;;;;4976052;28;20057;-72
2022/12/07 09:34:04;;;;;;;2.92;1.15;;;;;;;;;;4962782;28;20049;-71
2022/12/07 09:36:42;;;;;;;2.70;1.05;;;;;;;;;;4941938;28;20141;-71
2022/12/07 09:39:13;;;;;;;1.58;1.00;;;;;;;;;;4956011;28;20059;-69
2022/12/07 09:41:45;;;;;;;2.25;0.82;;;;;;;;;;4927079;28;20060;-73
2022/12/07 09:47:13;;;;;;;1.98;0.95;;;;;;;;;;4933401;28;20085;-73
2022/12/07 09:49:43;;;;;;;4.70;1.10;;;;;;;;;;4955524;28;20076;-73
2022/12/07 09:52:19;;;;;;;2.47;1.10;;;;;;;;;;4931138;28;20055;-73
2022/12/07 09:57:47;;;;;;;4.10;0.90;;;;;;;;;;4937958;28;20047;-73
2022/12/07 10:00:15;;;;;;;2.92;1.02;;;;;;;;;;4970549;28;20045;-71
2022/12/07 10:02:45;;;;;;;2.00;0.93;;;;;;;;;;4984863;28;20057;-72
2022/12/07 10:05:17;;;;;;;4.25;1.20;;;;;;;;;;4985523;28;20058;-69
2022/12/07 10:07:46;;;;;;;1.73;0.90;;;;;;;;;;4988663;28;20106;-71
2022/12/07 10:10:18;;;;;;;2.80;1.20;;;;;;;;;;4986001;28;20045;-73
2022/12/07 10:13:01;;;;;;;1.77;0.90;;;;;;;;;;4987922;28;20076;-69
2022/12/07 10:15:47;;;;;;;1.92;0.80;;;;;;;;;;4955052;28;20080;-69
2022/12/07 10:18:31;;;;;;;3.55;1.05;;;;;;;;;;4988321;28;20052;-71
2022/12/07 10:21:05;;;;;;;2.80;1.10;;;;;;;;;;4990547;28;20091;-71
2022/12/07 10:23:33;;;;;;;2.60;1.02;;;;;;;;;;4973562;28;20230;-69
2022/12/07 10:26:00;;;;;;;3.67;1.00;;;;;;;;;;4983394;28;20052;-71
2022/12/07 10:28:36;;;;;;;2.75;1.00;;;;;;;;;;5003674;28;20060;-71
2022/12/07 10:31:17;;;;;;;3.22;1.10;;;;;;;;;;5044592;28;20052;-70
2022/12/07 10:33:51;;;;;;;3.72;1.08;;;;;;;;;;5042877;28;20059;-71
2022/12/07 10:36:23;;;;;;;2.85;1.10;;;;;;;;;;4949963;28;20060;-70
2022/12/07 10:38:50;;;;;;;1.75;0.82;;;;;;;;;;4998816;28;20059;-69
2022/12/07 10:41:18;;;;;;;3.33;1.08;;;;;;;;;;5011075;28;20053;-70
2022/12/07 10:43:51;;;;;;;3.65;1.05;;;;;;;;;;5006115;28;20114;-71
2022/12/07 10:46:31;;;;;;;2.85;1.13;;;;;;;;;;5018770;28;20151;-71
2022/12/07 10:49:05;;;;;;;3.70;1.05;;;;;;;;;;5048876;28;20159;-69
2022/12/07 10:51:35;;;;;;;4.35;0.88;;;;;;;;;;5072360;28;20182;-71
2022/12/07 10:54:10;;;;;;;1.98;1.10;;;;;;;;;;5032083;28;20055;-70
2022/12/07 10:56:45;;;;;;;2.97;1.20;;;;;;;;;;5000802;28;20051;-69
2022/12/07 10:59:31;;;;;;;4.22;0.85;;;;;;;;;;5027150;28;20071;-70
2022/12/07 11:02:02;;;;;;;2.47;1.33;;;;;;;;;;5045499;28;20056;-69
2022/12/07 11:04:38;;;;;;;4.68;1.33;;;;;;;;;;5011597;28;20076;-71
2022/12/07 11:07:15;;;;;;;3.42;1.20;;;;;;;;;;5051317;28;20048;-69
2022/12/07 11:09:59;;;;;;;3.50;1.27;;;;;;;;;;5025679;28;20060;-70
2022/12/07 11:12:34;;;;;;;2.65;0.95;;;;;;;;;;5025200;28;20128;-70
2022/12/07 11:15:13;;;;;;;3.83;1.13;;;;;;;;;;4995436;28;20135;-69
2022/12/07 11:17:47;;;;;;;3.50;0.90;;;;;;;;;;5068959;28;20059;-68
2022/12/07 11:20:19;;;;;;;3.30;1.00;;;;;;;;;;5050744;28;20089;-68
2022/12/07 11:22:51;;;;;;;2.70;0.98;;;;;;;;;;5045000;28;20106;-70
2022/12/07 11:25:25;;;;;;;4.45;0.90;;;;;;;;;;4996821;28;20060;-69
2022/12/07 11:28:04;;;;;;;3.50;1.02;;;;;;;;;;5044477;28;20128;-71
2022/12/07 11:30:35;;;;;;;5.97;1.00;;;;;;;;;;5034188;28;20102;-70
2022/12/07 11:33:12;;;;;;;1.58;0.88;;;;;;;;;;5023699;28;20168;-69
2022/12/07 11:35:51;;;;;;;4.05;1.10;;;;;;;;;;5011677;28;20048;-69
2022/12/07 11:38:19;;;;;;;8.05;0.95;;;;;;;;;;5006078;28;20053;-69
2022/12/07 11:40:48;;;;;;;3.80;1.13;;;;;;;;;;5014945;28;20127;-68
2022/12/07 11:43:24;;;;;;;4.80;1.00;;;;;;;;;;5014331;28;20144;-69
2022/12/07 11:45:59;;;;;;;6.15;1.05;;;;;;;;;;4966109;28;20295;-70
2022/12/07 11:48:31;;;;;;;3.13;1.00;;;;;;;;;;5038192;28;20045;-68
2022/12/07 11:51:09;;;;;;;5.20;1.33;;;;;;;;;;5015298;28;20048;-71
2022/12/07 11:53:39;;;;;;;6.10;1.38;;;;;;;;;;5011721;28;21164;-69
2022/12/07 11:56:09;;;;;;;3.80;1.20;;;;;;;;;;4976512;28;20048;-69
2022/12/07 11:58:40;;;;;;;2.75;1.00;;;;;;;;;;5040868;28;20048;-69
2022/12/07 12:01:15;;;;;;;4.50;1.15;;;;;;;;;;5021732;28;20049;-70
2022/12/07 12:03:43;;;;;;;3.10;1.27;;;;;;;;;;5027468;28;20055;-71
2022/12/07 12:06:15;;;;;;;4.30;1.38;;;;;;;;;;5013692;28;20060;-71
2022/12/07 12:08:45;;;;;;;1.80;0.98;;;;;;;;;;5003395;28;20111;-69
2022/12/07 12:11:23;;;;;;;2.72;1.23;;;;;;;;;;4982248;28;20049;-71
2022/12/07 12:14:02;;;;;;;4.00;1.13;;;;;;;;;;5021255;28;20048;-69
2022/12/07 12:16:52;;;;;;;3.15;1.27;;;;;;;;;;5004142;28;20059;-69
2022/12/07 12:19:25;;;;;;;2.97;1.15;;;;;;;;;;4996392;28;20068;-70
2022/12/07 12:21:58;;;;;;;2.55;1.10;;;;;;;;;;4963208;28;20057;-70
2022/12/07 12:24:28;;;;;;;2.58;1.20;;;;;;;;;;5024453;28;20052;-71
2022/12/07 12:26:58;;;;;;;4.75;1.20;;;;;;;;;;5028940;28;20095;-71
2022/12/07 12:29:29;;;;;;;3.67;1.20;;;;;;;;;;5017409;28;20049;-70
2022/12/07 12:32:08;;;;;;;4.25;0.98;;;;;;;;;;5072658;28;20052;-70
2022/12/07 12:34:41;;;;;;;3.97;1.10;;;;;;;;;;5002689;28;20147;-70
2022/12/07 12:37:26;;;;;;;3.20;1.33;;;;;;;;;;5024806;28;20117;-71
2022/12/07 12:40:10;;;;;;;5.07;1.30;;;;;;;;;;5008732;28;20099;-70
2022/12/07 12:42:44;;;;;;;4.35;1.20;;;;;;;;;;5038444;28;20146;-68
2022/12/07 12:45:22;;;;;;;4.90;1.35;;;;;;;;;;4975708;28;20132;-70
2022/12/07 12:47:59;;;;;;;3.20;1.27;;;;;;;;;;4992753;28;20045;-71
2022/12/07 12:50:28;;;;;;;4.93;1.23;;;;;;;;;;5034361;28;20049;-71
2022/12/07 12:53:24;;;;;;;4.65;1.77;;;;;;;;;;4984505;28;20057;-70
2022/12/07 12:56:18;;;;;;;5.07;1.40;;;;;;;;;;4902356;28;20060;-69
2022/12/07 12:58:45;;;;;;;4.55;1.23;;;;;;;;;;4982821;28;20069;-69
2022/12/07 13:01:50;;;;;;;2.70;1.05;;;;;;;;;;5015931;28;20072;-70
2022/12/07 13:04:28;;;;;;;3.33;1.10;;;;;;;;;;5006617;28;20085;-71
2022/12/07 13:06:54;;;;;;;8.90;1.23;;;;;;;;;;5017709;28;20059;-68
2022/12/07 13:09:25;;;;;;;3.65;1.15;;;;;;;;;;5013919;28;20285;-71
2022/12/07 13:11:57;;;;;;;6.47;1.08;;;;;;;;;;5005130;28;20054;-70
2022/12/07 13:14:53;;;;;;;3.88;0.90;;;;;;;;;;5010042;28;20171;-68
2022/12/07 13:17:50;;;;;;;2.55;0.90;;;;;;;;;;4952003;28;20126;-69
2022/12/07 13:20:40;;;;;;;3.95;1.10;;;;;;;;;;4959452;28;20050;-69
2022/12/07 13:23:10;;;;;;;3.95;0.95;;;;;;;;;;4961006;28;20100;-69
2022/12/07 13:25:43;;;;;;;2.17;0.73;;;;;;;;;;4940524;28;20061;-69
2022/12/07 13:28:15;;;;;;;5.25;0.98;;;;;;;;;;4925226;28;20065;-71
2022/12/07 13:30:46;;;;;;;1.90;0.80;;;;;;;;;;4938823;28;20061;-69
2022/12/07 13:33:21;;;;;;;3.30;0.73;;;;;;;;;;4929781;28;20054;-69
2022/12/07 13:35:54;;;;;;;4.97;0.85;;;;;;;;;;4912375;28;20058;-69
2022/12/07 13:38:24;;;;;;;4.75;0.90;;;;;;;;;;4904111;28;20069;-71
2022/12/07 13:41:01;;;;;;;5.35;1.00;;;;;;;;;;4920256;28;20057;-69
2022/12/07 13:43:30;;;;;;;3.30;1.10;;;;;;;;;;4946021;28;20062;-70
2022/12/07 13:45:59;;;;;;;1.73;0.82;;;;;;;;;;4927931;28;20051;-70
2022/12/07 13:48:31;;;;;;;3.20;0.80;;;;;;;;;;4889921;28;20228;-68
2022/12/07 13:51:16;;;;;;;5.22;0.70;;;;;;;;;;4920133;28;20058;-70
2022/12/07 13:53:49;;;;;;;3.28;0.77;;;;;;;;;;4930554;28;20053;-68
2022/12/07 13:56:17;;;;;;;2.03;0.80;;;;;;;;;;4938028;28;20061;-69
2022/12/07 13:58:47;;;;;;;5.07;0.85;;;;;;;;;;4993385;28;20057;-71
2022/12/07 14:01:16;;;;;;;5.75;1.02;;;;;;;;;;5008204;28;20053;-68
2022/12/07 14:03:45;;;;;;;1.85;0.60;;;;;;;;;;4992662;28;20071;-69
2022/12/07 14:06:25;;;;;;;2.13;0.75;;;;;;;;;;4970467;28;20107;-70
2022/12/07 14:09:09;;;;;;;2.58;0.68;;;;;;;;;;4999606;28;20063;-69
2022/12/07 14:11:40;;;;;;;2.20;0.65;;;;;;;;;;4996320;28;20049;-68
2022/12/07 14:14:12;;;;;;;1.38;0.60;;;;;;;;;;5001773;28;20053;-68
2022/12/07 14:16:41;;;;;;;1.38;0.60;;;;;;;;;;4983206;28;20057;-69
2022/12/07 14:19:41;;;;;;;2.95;0.80;;;;;;;;;;5021071;28;20061;-69
2022/12/07 14:22:10;;;;;;;2.38;1.17;;;;;;;;;;5000154;28;20056;-71
2022/12/07 14:24:42;;;;;;;0.60;0.40;;;;;;;;;;5025073;28;20057;-71
2022/12/07 14:27:17;;;;;;;0.75;0.55;;;;;;;;;;4999631;28;20059;-70
2022/12/07 14:29:46;;;;;;;3.38;0.70;;;;;;;;;;5021468;28;20109;-70
2022/12/07 14:32:21;;;;;;;2.35;0.70;;;;;;;;;;5018699;28;20054;-69
2022/12/07 14:35:01;;;;;;;4.38;0.73;;;;;;;;;;5025152;28;20144;-70
2022/12/07 14:37:30;;;;;;;1.58;0.57;;;;;;;;;;4974839;28;20041;-70
2022/12/07 14:39:56;;;;;;;1.98;0.90;;;;;;;;;;5025822;28;20067;-68
2022/12/07 14:42:25;;;;;;;2.90;0.80;;;;;;;;;;5068899;28;20059;-71
2022/12/07 14:44:52;;;;;;;1.67;0.70;;;;;;;;;;5057242;28;20059;-70
2022/12/07 14:47:19;;;;;;;3.08;0.50;;;;;;;;;;5012303;28;20052;-70
2022/12/07 14:49:46;;;;;;;1.65;0.55;;;;;;;;;;5031822;28;20074;-69
2022/12/07 14:52:15;;;;;;;1.50;0.63;;;;;;;;;;5058571;28;20177;-68
2022/12/07 14:54:46;;;;;;;4.65;0.63;;;;;;;;;;5030988;28;20051;-70
2022/12/07 14:57:15;;;;;;;1.60;0.65;;;;;;;;;;4985350;28;20127;-69
2022/12/07 14:59:42;;;;;;;0.93;0.55;;;;;;;;;;5006824;28;20117;-71
2022/12/07 15:02:12;;;;;;;1.45;0.70;;;;;;;;;;5070307;28;20063;-71
2022/12/07 15:04:44;;;;;;;1.73;0.75;;;;;;;;;;5051223;28;20048;-71
2022/12/07 15:07:16;;;;;;;2.95;1.40;;;;;;;;;;4979344;28;20063;-70
2022/12/07 15:09:46;;;;;;;3.78;1.08;;;;;;;;;;5032618;28;20059;-70
2022/12/07 15:12:13;;;;;;;5.15;1.15;;;;;;;;;;5037895;28;20072;-68
2022/12/07 15:14:42;;;;;;;2.58;1.17;;;;;;;;;;5011142;28;20053;-70
2022/12/07 15:17:10;;;;;;;3.80;1.13;;;;;;;;;;4957580;28;20224;-72
2022/12/07 15:19:37;;;;;;;2.63;0.93;;;;;;;;;;5013302;28;20056;-68
2022/12/07 15:22:04;;;;;;;2.50;0.90;;;;;;;;;;5010832;28;20044;-68
2022/12/07 15:24:31;;;;;;;7.78;1.05;;;;;;;;;;5072010;28;20084;-70
2022/12/07 15:27:00;;;;;;;3.60;1.10;;;;;;;;;;5006584;28;20111;-68
2022/12/07 15:29:27;;;;;;;3.40;1.10;;;;;;;;;;5004226;28;20071;-69
2022/12/07 15:31:57;;;;;;;2.08;0.88;;;;;;;;;;5031843;28;20131;-68
2022/12/07 15:34:24;;;;;;;2.97;1.05;;;;;;;;;;5043122;28;20101;-71
2022/12/07 15:52:12;;;;;;;6.45;1.10;;;;;;;;;;796769;23;20371;-70
2022/12/07 16:11:11;;;;;;;1.92;0.80;;;;;;;;;;968072;22;20613;-68
2022/12/07 16:13:46;;;;;;;2.08;0.95;;;;;;;;;;992779;23;20405;-68
2022/12/07 18:19:50;;;;;;;2.55;1.00;;;;;;;;;;1102423;23;20453;-67
2022/12/07 18:54:16;;;;;;;4.75;1.52;;;;;;;;;;912725;22;20413;-67
2022/12/07 19:34:41;;;;;;;4.40;1.50;;;;;;;;;;957314;22;20245;-66
2022/12/07 19:37:24;;;;;;;2.80;1.40;;;;;;;;;;1154757;23;20379;-68